SKLT

Details ICAO SKLT (LET)
Name ALFREDO VASQUEZ COBO
Region Colombia
Timezone America/Bogota (UTC-5.0)
Plans Departing 18
Arriving 26
Stats Elevation 277 ft / 84 m (AMSL)
Location -4.193167° -69.942682°
Runways 1
Magnetic Variation 9.010° W
Sunrise 2017-12-10 10:23:23 UTC / 2017-12-10 05:23:23 Local
Sunset 2017-12-10 22:44:52 UTC / 2017-12-10 17:44:52 Local
Advertisement - Login to hide

Runways

ID Width Length Bearing (true) Bearing (mag) Surface Threshold Offset Overrun Length
03 131 ft / 40 m 6,189 ft / 1,886 m 20.69° 29.70° Asphalt 0 ft / 0 m 0 ft / 0 m
21 131 ft / 40 m 6,189 ft / 1,886 m 200.69° 209.70° Asphalt 0 ft / 0 m 725 ft / 221 m

Approach Navaids

Runway Type Ident Frequency Range Bearing (true) Bearing (mag) Slope Elevation
21 Localiser ILET 110.90 MHz 18 nm / 33 km 200.69° 209.70° - 277 ft / 84 m (AMSL)
21 Glidescope ILET 110.90 MHz 10 nm / 19 km 200.69° 209.70° 3.00° 277 ft / 84 m (AMSL)
21 DME ILET 110.90 MHz 18 nm / 33 km - - - 277 ft / 84 m (AMSL)

Map

Weather


0- 5 10 15 20 25 30 35+ Temperature / ° C

Clouds and Precipitation
Forecast for 2017-12-11 00:00 UTC. Updated an hour ago

Ground ~20,000 ft ~40,000 ft Winds

METAR

SKLT 110000Z 03004KT 9999 SCT013 SCT080 26/24 A2973 RETS

TAF

Not found

Frequencies

Tower 118.10 MHz TWR
Approach 119.10 MHz LETICIA APP
Warning: Do not use this data for real-world aviation or navigation. No guarantee of current accuracy is given.